• Join FlightAware (Why Join?)
  • Login
  • US Flag 
10:18AM EST


 

Airport Tracker/Info


-or-


 

Live Flight TrackerFlight Track Log ✈ UAL5908 ✈ 22-Apr-2013 ✈ KBOS - KIAD

Flight Track Log - Related Links

Times and Time Zones

All times are in EDT time to prevent confusion due to time zone crossing. See the UAL5908 flight status page for this flight to view local times or setup timezone preferences in your user account.

Time Position Orientation Groundspeed Altitude Reporting Facility
EDT Latitude Longitude Course Direction KTS MPH feet Rate Location/Type
05:08PM 42.3667 -70.9833 240° Southwest 148 170 700  Level KA90
05:09PM 42.3667 -70.9167 90° East 201 231 3,000 2,940 Climbing KA90
05:10PM 42.3833 -70.8333 75° East 233 268 6,300 2,760 Climbing KA90
05:11PM 42.4071 -70.7404 144° Southeast  Level FlightAware Approximate
05:11PM 42.3794 -70.7508 94° East 259 298 9,000  Level Boston Center
05:12PM 42.3188 -70.7204 172° South  Level FlightAware Approximate
05:12PM 42.3103 -70.7247 164° South 229 264 10,900  Level Boston Center
05:13PM 42.2519 -70.7887 228° Southwest  Level FlightAware Approximate
05:13PM 42.2364 -70.7914 214° Southwest 229 264 13,100  Level Boston Center
05:14PM 42.2018 -70.8902 240° Southwest  Level FlightAware Approximate
05:14PM 42.2089 -70.9208 254° West 265 305 15,300  Level Boston Center
05:15PM 42.2042 -71.0386 267° West 325 374 17,700 1,620 Climbing Boston Center
05:16PM 42.2017 -71.1817 269° West 346 398 18,600 960 Climbing Boston Center
05:17PM 42.2031 -71.3133 271° West 373 429 19,700 1,320 Climbing Boston Center
05:18PM 42.2003 -71.4536 269° West 378 435 21,300 1,800 Climbing Boston Center
05:19PM 42.1950 -71.5939 267° West 384 442 23,300 2,160 Climbing Boston Center
05:20PM 42.1897 -71.7283 267° West 379 436 25,700 2,700 Climbing Boston Center
05:21PM 42.1717 -71.8461 258° West 353 406 28,700 2,580 Climbing Boston Center
05:22PM 42.1556 -71.9472 258° West 312 359 30,900 1,620 Climbing Boston Center
05:23PM 42.1372 -72.0508 257° West 295 339 32,000 540 Climbing Boston Center
05:24PM 42.1186 -72.1658 258° West 298 343 32,000  Level Boston Center
05:25PM 42.0961 -72.2861 256° West 319 367 32,000  Level Boston Center
05:26PM 42.0731 -72.4178 257° West 339 390 32,000  Level Boston Center
05:27PM 42.0503 -72.5519 257° West 346 398 32,000  Level Boston Center
05:28PM 42.0314 -72.6608 257° West 346 398 32,000  Level Boston Center
05:29PM 42.0081 -72.7839 256° West 346 398 32,000  Level Boston Center
05:30PM 41.9847 -72.9122 256° West 346 398 32,000  Level Boston Center
05:31PM 41.9569 -73.0542 255° West 360 414 32,000  Level Boston Center
05:32PM 41.9353 -73.1825 257° West 360 414 32,000 -300 Level Boston Center
05:33PM 41.9136 -73.3078 257° West 354 407 31,500 -780 Descending Boston Center
05:34PM 41.8894 -73.4383 256° West 359 413 30,500 -780 Descending Boston Center
05:35PM 41.8633 -73.5719 255° West 365 420 30,000 -60 Descending Boston Center
05:36PM 41.8203 -73.6964 245° Southwest 371 427 30,400 660 Climbing Boston Center
05:37PM 41.7467 -73.7672 216° Southwest 322 371 31,400 480 Climbing Boston Center
05:39PM 41.6053 -73.9061 216° Southwest 348 400 32,000 180 Climbing New York Center
05:40PM 41.5161 -73.9683 208° Southwest 348 400 32,000  Level New York Center
05:41PM 41.4194 -73.9969 193° South 348 400 32,000  Level New York Center
05:42PM 41.3208 -74.0281 193° South 353 406 32,000 -480 Level New York Center
05:43PM 41.2242 -74.0564 192° South 364 419 31,100 -1,140 Descending New York Center
05:44PM 41.1128 -74.0978 196° South 372 428 29,800 -1,200 Descending New York Center
05:45PM 41.0197 -74.1400 199° South 372 428 28,800 -900 Descending New York Center
05:46PM 40.9756 -74.2314 237° Southwest 321 369 28,000 -420 Descending New York Center
05:47PM 40.9508 -74.3564 255° West 326 375 28,000  Level New York Center
05:48PM 40.9242 -74.4814 254° West 342 394 28,000  Level New York Center
05:49PM 40.9014 -74.6064 256° West 347 399 28,000  Level New York Center
05:50PM 40.8642 -74.7222 247° West 347 399 28,000  Level New York Center
05:51PM 40.8292 -74.8353 248° West 342 394 28,000  Level New York Center
05:52PM 40.7936 -74.9567 249° West 349 402 28,000  Level New York Center
05:53PM 40.7561 -75.0747 247° West 349 402 28,000  Level New York Center
05:54PM 40.7133 -75.2144 248° West 357 411 28,000  Level New York Center
05:55PM 40.6733 -75.3378 247° West 367 422 28,000 -600 Level New York Center
05:56PM 40.6267 -75.4606 243° Southwest 372 428 26,900 -1,740 Descending New York Center
05:57PM 40.5694 -75.5878 239° Southwest 382 440 24,600 -2,340 Descending New York Center
05:58PM 40.5142 -75.7203 241° Southwest 396 456 22,300 -2,040 Descending New York Center
05:59PM 40.4589 -75.8444 240° Southwest 407 468 20,500 -1,200 Descending New York Center
06:00PM 40.3853 -75.9564 229° Southwest 407 468 20,000 -300 Descending New York Center
06:01PM 40.3078 -76.0567 225° Southwest 407 468 20,000  Level New York Center
06:02PM 40.2261 -76.1564 223° Southwest 402 463 20,000 -600 Level New York Center
06:03PM 40.1508 -76.2539 225° Southwest 397 457 18,900 -1,020 Descending New York Center
06:04PM 40.0872 -76.3656 233° Southwest 387 445 18,000 -720 Descending New York Center
06:05PM 40.0314 -76.4831 238° Southwest 387 445 17,500 -780 Descending New York Center
06:08PM 39.9683 -76.5961 241° Southwest  Level FlightAware Approximate
06:08PM 39.8667 -76.8333 241° Southwest 373 429 15,000  Level Potomac TRACON
06:09PM 39.8167 -76.9500 241° Southwest 373 429 14,900 -1,020 Descending Potomac TRACON
06:10PM 39.7667 -77.0667 241° Southwest 367 422 13,000 -1,980 Descending Potomac TRACON
06:11PM 39.7167 -77.1667 237° Southwest 357 411 11,000 -1,500 Descending Potomac TRACON
06:12PM 39.6500 -77.2833 233° Southwest 350 403 10,000 -660 Descending Potomac TRACON
06:13PM 39.5833 -77.3333 210° Southwest 287 330 9,700 -1,140 Descending Potomac TRACON
06:14PM 39.5167 -77.3500 191° South 264 304 7,800 -1,440 Descending Potomac TRACON
06:15PM 39.4500 -77.3667 191° South 255 293 6,900 -960 Descending Potomac TRACON
06:17PM 39.3449 -77.3500 180° South  Level FlightAware Approximate
06:17PM 39.3000 -77.3667 180° South 264 304 5,000  Level Potomac TRACON
06:18PM 39.2333 -77.3667 180° South 260 299 4,600 -540 Descending Potomac TRACON
06:19PM 39.1500 -77.3500 171° South 249 287 4,000 -360 Descending Potomac TRACON
06:21PM 39.0352 -77.3500 180° South  Level FlightAware Approximate
06:23PM 38.8667 -77.3667 349° North 250 288 2,900  Level Potomac TRACON
06:24PM 38.8000 -77.3667 180° South 220 253 3,000  Climbing Potomac TRACON
06:25PM 38.7667 -77.4167 229° Southwest 223 257 2,900  Descending Potomac TRACON
06:26PM 38.7833 -77.4667 293° West 191 220 3,000 -540 Climbing Potomac TRACON
06:28PM 38.9333 -77.4500 349° North  Level FlightAware Approximate
06:28PM 38.8867 -77.4383 349° North  Level FlightAware Approximate
06:28PM 38.8833 -77.4667 349° North 136 157 1,400  Level Potomac TRACON
06:29PM 38.9474 -77.4599 349° North  Level Estimated
06:30PM 38.9333 -77.4500 349° North  Level FlightAware Approximate